Time;durP1;ratioP1;P1;durP2;ratioP2;P2;SDS_P1;SDS_P2;PMS_P1;PMS_P2;Temp;Humidity;BMP_temperature;BMP_pressure;BME280_temperature;BME280_humidity;BME280_pressure;Samples;Min_cycle;Max_cycle;Signal;HPM_P1;HPM_P2
2022/03/28 00:02:11;;;;;;;;;;;;;;;4.19;58.83;100977.75;5053147;28;1910;-59
2022/03/28 00:04:37;;;;;;;;;;;;;;;3.94;59.42;100974.00;5052365;28;842;-59
2022/03/28 00:07:04;;;;;;;;;;;;;;;3.75;60.21;100977.13;5052901;28;802;-59
2022/03/28 00:09:31;;;;;;;;;;;;;;;3.65;60.35;100970.09;5052781;28;795;-59
2022/03/28 00:11:57;;;;;;;;;;;;;;;3.67;60.43;100973.31;5052640;28;811;-59
2022/03/28 00:14:24;;;;;;;;;;;;;;;3.72;60.74;100975.06;5052638;28;907;-59
2022/03/28 00:16:51;;;;;;;;;;;;;;;3.80;60.10;100985.19;5052624;28;890;-59
2022/03/28 00:19:17;;;;;;;;;;;;;;;3.94;60.46;100982.22;5052595;28;877;-59
2022/03/28 00:21:44;;;;;;;;;;;;;;;3.98;60.36;100976.88;5052588;28;1925;-59
2022/03/28 00:24:11;;;;;;;;;;;;;;;3.82;60.80;100965.69;5052548;28;887;-59
2022/03/28 00:26:38;;;;;;;;;;;;;;;3.92;60.97;100970.00;5052247;28;1328;-59
2022/03/28 00:29:04;;;;;;;;;;;;;;;3.75;61.39;100966.19;5052386;28;843;-59
2022/03/28 00:31:31;;;;;;;;;;;;;;;3.58;63.20;100955.31;5052180;28;882;-59
2022/03/28 00:33:57;;;;;;;;;;;;;;;3.36;63.22;100957.16;5052369;28;806;-59
2022/03/28 00:36:24;;;;;;;;;;;;;;;3.32;64.21;100953.47;5052231;28;854;-60
2022/03/28 00:38:51;;;;;;;;;;;;;;;3.61;63.92;100952.75;5052181;28;857;-59
2022/03/28 00:41:18;;;;;;;;;;;;;;;3.93;62.88;100941.53;5052073;28;2007;-59
2022/03/28 00:43:54;;;;;;;;;;;;;;;3.98;62.50;100952.28;5052089;28;831;-59
2022/03/28 00:46:22;;;;;;;;;;;;;;;3.93;62.35;100939.59;5052697;28;870;-59
2022/03/28 00:48:49;;;;;;;;;;;;;;;3.88;61.95;100937.03;5052301;28;846;-59
2022/03/28 00:51:17;;;;;;;;;;;;;;;3.71;62.15;100946.09;5052206;28;885;-59
2022/03/28 00:53:44;;;;;;;;;;;;;;;3.42;62.81;100949.59;5052222;28;787;-59
2022/03/28 00:56:11;;;;;;;;;;;;;;;3.27;63.50;100948.97;5052269;28;913;-59
2022/03/28 00:58:38;;;;;;;;;;;;;;;3.30;63.28;100954.94;5052090;28;830;-59
2022/03/28 01:01:05;;;;;;;;;;;;;;;3.46;62.99;100966.94;5051845;28;1952;-59
2022/03/28 01:03:32;;;;;;;;;;;;;;;3.57;62.68;100975.59;5051813;28;910;-59
2022/03/28 01:05:58;;;;;;;;;;;;;;;3.45;62.94;100979.78;5052040;28;815;-59
2022/03/28 01:08:26;;;;;;;;;;;;;;;3.27;63.41;100987.25;5051954;28;882;-59
2022/03/28 01:10:55;;;;;;;;;;;;;;;2.72;64.16;100984.38;5051718;28;799;-59
2022/03/28 01:13:23;;;;;;;;;;;;;;;2.57;64.72;100985.66;5051672;28;823;-59
2022/03/28 01:15:50;;;;;;;;;;;;;;;2.54;65.62;100989.84;5050720;28;927;-59
2022/03/28 01:18:17;;;;;;;;;;;;;;;2.84;65.48;100993.53;5051558;28;868;-59
2022/03/28 01:20:43;;;;;;;;;;;;;;;3.05;64.74;100992.88;5051517;28;952;-59
2022/03/28 01:23:11;;;;;;;;;;;;;;;3.12;64.55;100992.41;5051610;28;1953;-59
2022/03/28 01:25:37;;;;;;;;;;;;;;;3.17;65.17;100989.50;5051470;28;1368;-59
2022/03/28 01:28:04;;;;;;;;;;;;;;;3.36;64.27;101009.09;5051542;28;858;-59
2022/03/28 01:30:32;;;;;;;;;;;;;;;3.47;63.38;101009.53;5051349;28;850;-59
2022/03/28 01:32:59;;;;;;;;;;;;;;;3.28;63.70;101010.69;5033736;28;869;-59
2022/03/28 01:35:27;;;;;;;;;;;;;;;3.16;64.73;100999.63;5051473;28;799;-59
2022/03/28 01:37:54;;;;;;;;;;;;;;;3.03;65.17;100990.50;5051487;28;790;-59
2022/03/28 01:40:21;;;;;;;;;;;;;;;2.90;66.28;101002.34;5051218;28;858;-59
2022/03/28 01:42:49;;;;;;;;;;;;;;;2.90;65.85;100996.91;5051339;28;1918;-59
2022/03/28 01:45:17;;;;;;;;;;;;;;;3.04;65.76;100997.53;5051386;28;1029;-59
2022/03/28 01:47:43;;;;;;;;;;;;;;;3.08;65.82;100994.97;5051272;28;850;-59
2022/03/28 01:50:10;;;;;;;;;;;;;;;3.22;65.60;100995.63;5051226;28;903;-59
2022/03/28 01:52:37;;;;;;;;;;;;;;;3.31;65.04;100992.88;5051169;28;931;-59
2022/03/28 01:55:04;;;;;;;;;;;;;;;3.29;64.83;100989.66;5051195;28;834;-59
2022/03/28 01:57:31;;;;;;;;;;;;;;;3.16;65.35;100999.63;5051065;28;922;-59
2022/03/28 01:59:58;;;;;;;;;;;;;;;3.03;64.92;100992.41;5049949;28;1533;-59
2022/03/28 02:02:24;;;;;;;;;;;;;;;2.91;65.33;100987.59;5051051;28;1941;-59
2022/03/28 02:04:51;;;;;;;;;;;;;;;3.00;65.32;100984.84;5051188;28;854;-59
2022/03/28 02:07:18;;;;;;;;;;;;;;;3.12;65.27;100986.94;5051052;28;846;-59
2022/03/28 02:09:45;;;;;;;;;;;;;;;3.20;64.84;100983.38;5051138;28;827;-59
2022/03/28 02:12:13;;;;;;;;;;;;;;;3.19;64.07;100984.53;5050947;28;940;-59
2022/03/28 02:14:40;;;;;;;;;;;;;;;3.18;63.59;100982.91;5051121;28;842;-59
2022/03/28 02:17:06;;;;;;;;;;;;;;;3.11;63.62;100974.41;5051015;28;873;-59
2022/03/28 02:19:33;;;;;;;;;;;;;;;3.01;63.35;100973.63;5051048;28;822;-59
2022/03/28 02:22:01;;;;;;;;;;;;;;;3.01;63.44;100973.63;5050941;28;1886;-59
2022/03/28 02:24:27;;;;;;;;;;;;;;;3.13;62.53;100972.94;5051081;28;931;-59
2022/03/28 02:26:54;;;;;;;;;;;;;;;3.13;62.21;100981.16;5051626;28;1308;-59
2022/03/28 02:29:21;;;;;;;;;;;;;;;2.98;62.88;100968.00;5054675;28;898;-59
2022/03/28 02:31:47;;;;;;;;;;;;;;;2.84;62.71;100971.69;5054640;28;806;-59
2022/03/28 02:34:14;;;;;;;;;;;;;;;2.86;62.60;100969.44;5054627;28;842;-59
2022/03/28 02:36:41;;;;;;;;;;;;;;;2.84;62.19;100965.44;5054563;28;851;-59
2022/03/28 02:39:10;;;;;;;;;;;;;;;2.83;62.04;100969.28;5054447;28;873;-59
2022/03/28 02:41:37;;;;;;;;;;;;;;;2.88;61.57;100971.88;5054359;28;1972;-59
2022/03/28 02:44:04;;;;;;;;;;;;;;;3.02;60.97;100975.22;5054318;28;926;-59
2022/03/28 02:46:31;;;;;;;;;;;;;;;3.12;60.66;100974.09;5054397;28;811;-59
2022/03/28 02:48:58;;;;;;;;;;;;;;;3.23;59.92;100969.88;5054288;28;829;-59
2022/03/28 02:51:24;;;;;;;;;;;;;;;3.33;59.35;100967.94;5054318;28;870;-59
2022/03/28 02:53:51;;;;;;;;;;;;;;;3.31;58.54;100981.09;5054197;28;885;-59
2022/03/28 02:56:18;;;;;;;;;;;;;;;3.17;59.44;100967.66;5054270;28;905;-59
2022/03/28 02:58:44;;;;;;;;;;;;;;;3.06;59.06;100965.25;5054203;28;865;-59
2022/03/28 03:01:11;;;;;;;;;;;;;;;3.10;59.11;100962.69;5054082;28;1902;-59
2022/03/28 03:03:38;;;;;;;;;;;;;;;3.06;59.66;100964.44;5053963;28;835;-59
2022/03/28 03:06:04;;;;;;;;;;;;;;;3.10;58.84;100967.34;5054049;28;830;-59
2022/03/28 03:08:31;;;;;;;;;;;;;;;3.18;58.19;100974.69;5053817;28;902;-59
2022/03/28 03:10:58;;;;;;;;;;;;;;;3.27;57.87;100976.31;5054130;28;883;-59
2022/03/28 03:13:25;;;;;;;;;;;;;;;3.42;57.36;100985.94;5053896;28;886;-59
2022/03/28 03:15:51;;;;;;;;;;;;;;;3.50;57.14;100973.38;5053778;28;925;-59
2022/03/28 03:18:18;;;;;;;;;;;;;;;3.41;57.17;100984.31;5053858;28;849;-59
2022/03/28 03:20:43;;;;;;;;;;;;;;;3.36;57.64;100989.94;5053767;28;803;-59
2022/03/28 03:23:10;;;;;;;;;;;;;;;3.24;57.77;100985.16;5053904;28;1895;-59
2022/03/28 03:25:36;;;;;;;;;;;;;;;3.21;57.09;100990.47;5053801;28;1189;-59
2022/03/28 03:28:03;;;;;;;;;;;;;;;3.11;57.83;100993.53;5053992;28;818;-59
2022/03/28 03:30:30;;;;;;;;;;;;;;;3.06;57.69;100997.22;5053634;28;763;-59
2022/03/28 03:32:57;;;;;;;;;;;;;;;2.99;58.24;100992.25;5054133;28;803;-59
2022/03/28 03:35:24;;;;;;;;;;;;;;;2.77;58.19;101004.13;5053911;28;802;-59
2022/03/28 03:37:51;;;;;;;;;;;;;;;2.73;58.99;101007.81;5053118;28;1229;-59
2022/03/28 03:40:17;;;;;;;;;;;;;;;2.69;58.77;100996.75;5053116;28;808;-59
2022/03/28 03:42:45;;;;;;;;;;;;;;;2.80;58.28;101003.50;5053215;28;1909;-59
2022/03/28 03:45:11;;;;;;;;;;;;;;;2.76;58.39;101005.25;5053556;28;830;-59
2022/03/28 03:47:38;;;;;;;;;;;;;;;2.71;58.81;101004.59;5053221;28;881;-59
2022/03/28 03:50:05;;;;;;;;;;;;;;;2.56;58.91;101008.59;5053432;28;906;-59
2022/03/28 03:52:32;;;;;;;;;;;;;;;2.37;59.97;101009.69;5053095;28;873;-59
2022/03/28 03:54:59;;;;;;;;;;;;;;;2.15;60.30;101005.13;5053128;28;881;-59
2022/03/28 03:57:25;;;;;;;;;;;;;;;2.11;60.63;101008.81;5052994;28;810;-59
2022/03/28 03:59:52;;;;;;;;;;;;;;;2.38;60.47;101005.03;5052996;28;826;-59
2022/03/28 04:02:18;;;;;;;;;;;;;;;2.55;59.72;101009.72;5052801;28;1953;-59
2022/03/28 04:04:45;;;;;;;;;;;;;;;2.45;60.09;101008.09;5052877;28;838;-59
2022/03/28 04:07:13;;;;;;;;;;;;;;;2.25;60.63;101007.56;5052753;28;945;-59
2022/03/28 04:09:41;;;;;;;;;;;;;;;2.41;60.06;101007.13;5052997;28;941;-59
2022/03/28 04:12:07;;;;;;;;;;;;;;;2.80;59.09;101016.34;5052711;28;944;-59
2022/03/28 04:14:34;;;;;;;;;;;;;;;2.75;59.68;101014.59;5052628;28;935;-59
2022/03/28 04:17:01;;;;;;;;;;;;;;;2.54;60.31;101016.28;5052539;28;874;-59
2022/03/28 04:19:27;;;;;;;;;;;;;;;2.43;59.95;101018.53;5052574;28;868;-59
2022/03/28 04:21:54;;;;;;;;;;;;;;;2.43;60.84;100997.53;5052569;28;1975;-59
2022/03/28 04:24:21;;;;;;;;;;;;;;;2.42;60.99;100998.63;5052762;28;910;-59
2022/03/28 04:26:49;;;;;;;;;;;;;;;2.43;60.96;101007.59;5052427;28;1378;-59
2022/03/28 04:29:16;;;;;;;;;;;;;;;2.45;61.03;101010.81;5052409;28;889;-59
2022/03/28 04:31:42;;;;;;;;;;;;;;;2.47;60.78;101013.25;5052330;28;814;-59
2022/03/28 04:34:09;;;;;;;;;;;;;;;2.57;60.27;101012.94;5052379;28;866;-59
2022/03/28 04:36:37;;;;;;;;;;;;;;;2.78;59.77;101016.66;5052150;28;822;-59
2022/03/28 04:39:05;;;;;;;;;;;;;;;2.95;59.44;101012.34;5052186;28;811;-59
2022/03/28 04:41:32;;;;;;;;;;;;;;;3.15;59.80;101016.34;5052063;28;1977;-59
2022/03/28 04:43:58;;;;;;;;;;;;;;;3.55;58.47;101013.41;5034206;28;1237;-59
2022/03/28 04:46:25;;;;;;;;;;;;;;;4.03;58.00;101020.47;5052103;28;831;-59
2022/03/28 04:48:52;;;;;;;;;;;;;;;4.42;57.04;101030.28;5052217;28;866;-59
2022/03/28 04:51:19;;;;;;;;;;;;;;;4.74;56.28;101024.41;5051869;28;803;-59
2022/03/28 04:53:44;;;;;;;;;;;;;;;4.94;55.86;101022.84;5051985;28;869;-59
2022/03/28 04:56:11;;;;;;;;;;;;;;;5.16;55.30;101024.41;5051898;28;1267;-59
2022/03/28 04:58:37;;;;;;;;;;;;;;;5.39;54.37;101033.09;5051900;28;810;-59
2022/03/28 05:01:04;;;;;;;;;;;;;;;5.53;54.35;101033.59;5051788;28;1957;-59
2022/03/28 05:03:31;;;;;;;;;;;;;;;5.67;54.43;101041.50;5051875;28;826;-59
2022/03/28 05:05:57;;;;;;;;;;;;;;;5.98;54.27;101038.28;5051734;28;806;-59
2022/03/28 05:08:24;;;;;;;;;;;;;;;6.47;52.40;101032.03;5051770;28;873;-59
2022/03/28 05:10:51;;;;;;;;;;;;;;;6.92;52.26;101042.03;5051793;28;814;-59
2022/03/28 05:13:19;;;;;;;;;;;;;;;7.42;50.31;101037.16;5051737;28;834;-59
2022/03/28 05:15:46;;;;;;;;;;;;;;;8.04;49.89;101034.84;5051529;28;917;-59
2022/03/28 05:18:15;;;;;;;;;;;;;;;8.36;48.38;101030.09;5051618;28;937;-59
2022/03/28 05:20:41;;;;;;;;;;;;;;;8.61;48.04;101029.94;5051533;28;877;-59
2022/03/28 05:23:08;;;;;;;;;;;;;;;8.64;47.94;101023.69;5051484;28;1944;-59
2022/03/28 05:25:34;;;;;;;;;;;;;;;8.29;47.29;101025.22;5051557;28;1382;-59
2022/03/28 05:28:01;;;;;;;;;;;;;;;8.16;47.68;101023.75;5051699;28;810;-59
2022/03/28 05:30:28;;;;;;;;;;;;;;;8.56;47.72;101018.03;5051409;28;818;-59
2022/03/28 05:32:54;;;;;;;;;;;;;;;9.40;46.01;101024.88;5051366;28;846;-59
2022/03/28 05:35:20;;;;;;;;;;;;;;;10.53;44.53;101023.69;5051241;28;838;-59
2022/03/28 05:37:47;;;;;;;;;;;;;;;11.11;43.90;101027.22;5051561;28;819;-59
2022/03/28 05:40:14;;;;;;;;;;;;;;;11.25;43.97;101024.63;5051344;28;843;-59
2022/03/28 05:42:42;;;;;;;;;;;;;;;11.17;44.31;101026.50;5051238;28;1983;-59
2022/03/28 05:45:09;;;;;;;;;;;;;;;10.96;44.57;101029.00;5033891;28;827;-59
2022/03/28 05:47:35;;;;;;;;;;;;;;;10.99;44.09;101033.81;5051247;28;913;-59
2022/03/28 05:50:03;;;;;;;;;;;;;;;11.08;43.93;101028.78;5051224;28;846;-59
2022/03/28 05:52:30;;;;;;;;;;;;;;;11.71;42.43;101023.53;5051333;28;897;-59
2022/03/28 05:54:57;;;;;;;;;;;;;;;12.21;41.17;101035.13;5051270;28;906;-59
2022/03/28 05:57:23;;;;;;;;;;;;;;;12.79;38.62;101031.53;5051199;28;1042;-59
2022/03/28 05:59:51;;;;;;;;;;;;;;;13.37;37.33;101038.16;5051422;28;826;-59
2022/03/28 06:02:17;;;;;;;;;;;;;;;13.74;35.48;101047.38;5052677;28;1890;-59
2022/03/28 06:04:44;;;;;;;;;;;;;;;13.73;35.58;101041.03;5055200;28;875;-59
2022/03/28 06:07:11;;;;;;;;;;;;;;;13.72;34.77;101038.66;5055075;28;925;-59
2022/03/28 06:09:38;;;;;;;;;;;;;;;13.80;35.50;101043.03;5055059;28;865;-59
2022/03/28 06:12:04;;;;;;;;;;;;;;;13.67;35.57;101046.19;5055022;28;807;-59
2022/03/28 06:14:31;;;;;;;;;;;;;;;14.14;33.98;101040.69;5054920;28;908;-59
2022/03/28 06:16:58;;;;;;;;;;;;;;;14.35;34.15;101048.22;5054960;28;1021;-59
2022/03/28 06:19:24;;;;;;;;;;;;;;;14.16;34.95;101041.09;5054810;28;851;-59
2022/03/28 06:21:51;;;;;;;;;;;;;;;14.61;34.45;101046.25;5054762;28;1953;-59
2022/03/28 06:24:18;;;;;;;;;;;;;;;14.80;32.72;101048.59;5055133;28;1022;-59
2022/03/28 06:26:44;;;;;;;;;;;;;;;14.91;32.73;101045.78;5054572;28;1357;-59
2022/03/28 06:29:10;;;;;;;;;;;;;;;15.26;32.92;101039.28;5054682;28;854;-59
2022/03/28 06:31:37;;;;;;;;;;;;;;;15.41;30.45;101042.81;5054638;28;949;-59
2022/03/28 06:34:04;;;;;;;;;;;;;;;15.37;30.94;101044.81;5054539;28;862;-59
2022/03/28 06:36:31;;;;;;;;;;;;;;;15.49;30.57;101046.34;5054620;28;882;-59
2022/03/28 06:38:58;;;;;;;;;;;;;;;15.68;30.79;101047.81;5054448;28;840;-59
2022/03/28 06:41:24;;;;;;;;;;;;;;;16.01;30.25;101042.88;5054371;28;1906;-59
2022/03/28 06:43:51;;;;;;;;;;;;;;;16.02;30.02;101041.66;5054352;28;870;-59
2022/03/28 06:46:20;;;;;;;;;;;;;;;15.96;29.13;101044.09;5054377;28;847;-58
2022/03/28 06:48:49;;;;;;;;;;;;;;;15.83;27.76;101049.38;5054265;28;938;-59
2022/03/28 06:51:15;;;;;;;;;;;;;;;15.92;28.40;101054.50;5054365;28;847;-59
2022/03/28 06:53:42;;;;;;;;;;;;;;;16.30;27.97;101043.41;5054246;28;887;-57
2022/03/28 06:56:10;;;;;;;;;;;;;;;16.39;26.48;101049.34;5054189;28;886;-59
2022/03/28 06:58:37;;;;;;;;;;;;;;;16.10;25.84;101045.97;5054359;28;889;-59
2022/03/28 07:01:04;;;;;;;;;;;;;;;15.79;26.02;101045.00;5054069;28;1945;-59
2022/03/28 07:03:32;;;;;;;;;;;;;;;15.78;27.92;101057.38;5054031;28;814;-59
2022/03/28 07:05:59;;;;;;;;;;;;;;;15.87;27.90;101052.13;5054002;28;917;-59
2022/03/28 07:08:25;;;;;;;;;;;;;;;16.45;28.17;101050.47;5054053;28;872;-59
2022/03/28 07:10:52;;;;;;;;;;;;;;;16.72;26.66;101038.63;5054046;28;830;-59
2022/03/28 07:13:19;;;;;;;;;;;;;;;16.44;25.63;101040.50;5052608;28;917;-59
2022/03/28 07:15:45;;;;;;;;;;;;;;;16.70;25.32;101041.84;5054052;28;858;-59
2022/03/28 07:18:11;;;;;;;;;;;;;;;16.38;25.51;101047.72;5053847;28;841;-59
2022/03/28 07:20:39;;;;;;;;;;;;;;;16.45;25.34;101044.06;5035888;28;843;-59
2022/03/28 07:23:06;;;;;;;;;;;;;;;16.69;25.20;101048.63;5053701;28;1893;-59
2022/03/28 07:25:33;;;;;;;;;;;;;;;16.43;23.78;101047.31;5053694;28;1209;-60
2022/03/28 07:28:05;;;;;;;;;;;;;;;16.12;23.92;101043.56;5053620;28;853;-59
2022/03/28 07:30:32;;;;;;;;;;;;;;;16.10;23.83;101046.75;5053639;28;843;-59
2022/03/28 07:32:59;;;;;;;;;;;;;;;16.19;23.42;101032.34;5053428;28;957;-59
2022/03/28 07:35:26;;;;;;;;;;;;;;;16.09;24.39;101045.19;5053456;28;874;-59
2022/03/28 07:37:52;;;;;;;;;;;;;;;16.27;25.67;101039.47;5053538;28;842;-59
2022/03/28 07:40:20;;;;;;;;;;;;;;;16.48;26.00;101038.47;5053439;28;807;-59
2022/03/28 07:42:46;;;;;;;;;;;;;;;16.52;25.74;101030.88;5053244;28;1913;-59
2022/03/28 07:45:14;;;;;;;;;;;;;;;16.32;23.17;101036.25;5053237;28;957;-59
2022/03/28 07:47:43;;;;;;;;;;;;;;;16.57;22.90;101031.63;5053250;28;883;-59
2022/03/28 07:50:10;;;;;;;;;;;;;;;16.32;24.51;101024.28;5053198;28;803;-59
2022/03/28 07:52:38;;;;;;;;;;;;;;;16.16;25.07;101029.59;5053154;28;968;-59
2022/03/28 07:55:05;;;;;;;;;;;;;;;15.99;24.29;101034.13;5053373;28;870;-59
2022/03/28 07:57:33;;;;;;;;;;;;;;;16.01;25.77;101034.50;5052871;28;902;-59
2022/03/28 08:00:00;;;;;;;;;;;;;;;16.01;26.34;101035.28;5053043;28;1201;-59
2022/03/28 08:02:26;;;;;;;;;;;;;;;16.49;25.32;101030.88;5052991;28;1930;-59
2022/03/28 08:04:53;;;;;;;;;;;;;;;16.39;23.97;101029.00;5052842;28;850;-59
2022/03/28 08:07:19;;;;;;;;;;;;;;;16.30;24.16;101021.91;5052911;28;874;-59
2022/03/28 08:09:45;;;;;;;;;;;;;;;16.36;24.33;101022.25;5052801;28;815;-59
2022/03/28 08:12:12;;;;;;;;;;;;;;;16.53;23.71;101024.06;5052686;28;1320;-59
2022/03/28 08:14:39;;;;;;;;;;;;;;;16.41;24.81;101015.41;5052672;28;949;-59
2022/03/28 08:17:06;;;;;;;;;;;;;;;16.64;24.79;101017.59;5052877;28;960;-59
2022/03/28 08:19:33;;;;;;;;;;;;;;;16.87;23.23;101006.59;5052559;28;895;-59
2022/03/28 08:22:00;;;;;;;;;;;;;;;16.64;23.18;101006.41;5052476;28;1889;-59
2022/03/28 08:24:27;;;;;;;;;;;;;;;16.56;23.39;101002.13;5052294;28;929;-59
2022/03/28 08:26:53;;;;;;;;;;;;;;;16.60;24.67;101000.91;5052302;28;1926;-59
2022/03/28 08:29:20;;;;;;;;;;;;;;;16.64;23.37;100998.84;5052422;28;846;-59
2022/03/28 08:31:48;;;;;;;;;;;;;;;16.54;24.02;100992.16;5052396;28;799;-59
2022/03/28 08:34:15;;;;;;;;;;;;;;;16.41;24.33;100988.34;5052315;28;891;-59
2022/03/28 08:36:41;;;;;;;;;;;;;;;16.18;23.92;100993.72;5052345;28;909;-59
2022/03/28 08:39:08;;;;;;;;;;;;;;;16.59;23.69;100990.13;5052284;28;870;-59
2022/03/28 08:41:35;;;;;;;;;;;;;;;16.45;24.39;100991.88;5052061;28;1965;-59
2022/03/28 08:44:02;;;;;;;;;;;;;;;16.29;24.48;100988.84;5034339;28;1380;-60
2022/03/28 08:46:32;;;;;;;;;;;;;;;16.30;24.24;100987.63;5052001;28;917;-59
2022/03/28 08:48:59;;;;;;;;;;;;;;;16.37;25.28;100975.63;5052319;28;1057;-59
2022/03/28 08:51:29;;;;;;;;;;;;;;;16.56;24.21;100975.03;5052006;28;906;-59
2022/03/28 08:53:56;;;;;;;;;;;;;;;16.84;23.67;100975.94;5052210;28;834;-59
2022/03/28 08:56:24;;;;;;;;;;;;;;;16.46;24.86;100962.75;5052286;28;1141;-59
2022/03/28 08:58:50;;;;;;;;;;;;;;;16.20;25.38;100969.78;5051923;28;898;-59
2022/03/28 09:01:17;;;;;;;;;;;;;;;16.28;24.31;100965.75;5051946;28;2262;-59
2022/03/28 09:03:47;;;;;;;;;;;;;;;16.07;24.76;100966.72;5034118;28;1424;-59
2022/03/28 09:06:33;;;;;;;;;;;;;;;15.75;24.13;100964.22;5051757;28;1147;-59
2022/03/28 09:09:17;;;;;;;;;;;;;;;15.66;25.91;100945.13;5051736;28;965;-59
2022/03/28 09:11:46;;;;;;;;;;;;;;;15.80;26.38;100952.63;5051984;28;878;-59
2022/03/28 09:14:31;;;;;;;;;;;;;;;15.79;25.17;100947.44;5052367;28;806;-59
2022/03/28 09:17:07;;;;;;;;;;;;;;;15.78;26.33;100949.44;5051656;28;810;-59
2022/03/28 09:19:43;;;;;;;;;;;;;;;15.61;27.18;100953.13;5051588;28;878;-59
2022/03/28 09:22:10;;;;;;;;;;;;;;;15.79;26.55;100950.22;5051445;28;1980;-59
2022/03/28 09:24:37;;;;;;;;;;;;;;;15.63;27.68;100948.72;5051468;28;973;-59
2022/03/28 09:27:12;;;;;;;;;;;;;;;15.71;28.59;100950.28;5031828;28;958;-59
2022/03/28 09:29:55;;;;;;;;;;;;;;;15.64;29.16;100930.81;5031635;28;949;-59
2022/03/28 09:32:22;;;;;;;;;;;;;;;15.57;27.66;100925.28;5031650;28;916;-59
2022/03/28 09:35:02;;;;;;;;;;;;;;;15.31;29.02;100923.88;5031512;28;938;-59
2022/03/28 09:37:29;;;;;;;;;;;;;;;15.49;29.72;100924.56;5030728;28;831;-59
2022/03/28 09:39:56;;;;;;;;;;;;;;;15.63;29.38;100911.72;5031539;28;897;-59
2022/03/28 09:42:22;;;;;;;;;;;;;;;15.65;29.34;100914.88;5031793;28;1977;-59
2022/03/28 09:44:50;;;;;;;;;;;;;;;15.33;29.78;100904.78;5031407;28;826;-59
2022/03/28 09:47:18;;;;;;;;;;;;;;;15.54;29.13;100908.63;5031407;28;894;-59
2022/03/28 09:49:47;;;;;;;;;;;;;;;15.93;30.05;100911.88;5031333;28;957;-59
2022/03/28 09:52:14;;;;;;;;;;;;;;;15.86;28.82;100895.22;5031607;28;1075;-60
2022/03/28 09:54:51;;;;;;;;;;;;;;;15.61;31.15;100903.75;5031408;28;803;-59
2022/03/28 10:25:45;;;;;;;;;;;;;;;15.89;30.60;100865.72;5081264;22;1719;-58
2022/03/28 10:28:11;;;;;;;;;;;;;;;15.95;30.81;100866.84;5050982;28;794;-58
2022/03/28 10:30:40;;;;;;;;;;;;;;;15.98;31.05;100863.25;5051022;28;904;-58
2022/03/28 10:33:16;;;;;;;;;;;;;;;15.89;33.00;100854.56;5050823;28;925;-58
2022/03/28 10:35:59;;;;;;;;;;;;;;;16.23;32.00;100845.44;5050841;28;977;-58
2022/03/28 10:38:27;;;;;;;;;;;;;;;16.20;31.48;100846.28;5051459;28;799;-58
2022/03/28 10:40:55;;;;;;;;;;;;;;;16.10;32.98;100845.19;5050910;28;910;-58
2022/03/28 10:43:24;;;;;;;;;;;;;;;16.05;32.19;100848.44;5050644;28;1918;-58
2022/03/28 10:45:58;;;;;;;;;;;;;;;16.13;32.46;100833.22;5050626;28;874;-58
2022/03/28 10:48:35;;;;;;;;;;;;;;;16.21;33.23;100831.13;5052350;28;925;-58
2022/03/28 10:51:11;;;;;;;;;;;;;;;16.07;33.90;100818.16;5054556;28;957;-58
2022/03/28 10:53:42;;;;;;;;;;;;;;;16.27;34.15;100830.25;5054175;28;910;-58
2022/03/28 10:56:16;;;;;;;;;;;;;;;16.51;32.35;100827.56;5054232;28;945;-58
2022/03/28 10:58:46;;;;;;;;;;;;;;;16.46;33.58;100817.66;5054981;28;861;-58
2022/03/28 11:01:17;;;;;;;;;;;;;;;16.64;33.33;100811.84;5054065;28;1950;-58
2022/03/28 11:03:47;;;;;;;;;;;;;;;16.67;34.07;100808.22;5053885;28;886;-58
2022/03/28 11:06:15;;;;;;;;;;;;;;;16.75;33.38;100797.75;5054313;28;787;-58
2022/03/28 11:08:43;;;;;;;;;;;;;;;16.91;33.49;100783.16;5053984;28;823;-58
2022/03/28 11:11:17;;;;;;;;;;;;;;;16.78;31.94;100790.53;5053922;28;944;-58
2022/03/28 11:13:56;;;;;;;;;;;;;;;16.83;33.59;100767.72;5053954;28;881;-58
2022/03/28 11:16:39;;;;;;;;;;;;;;;16.85;32.66;100768.09;5053859;28;941;-58
2022/03/28 11:19:29;;;;;;;;;;;;;;;16.70;32.90;100767.50;5053904;28;854;-58
2022/03/28 11:22:05;;;;;;;;;;;;;;;16.72;34.68;100762.28;5053638;28;1957;-58
2022/03/28 11:24:45;;;;;;;;;;;;;;;16.97;33.32;100759.16;5053451;28;1207;-56
2022/03/28 11:27:12;;;;;;;;;;;;;;;17.19;33.54;100759.56;5053534;28;1098;-56
2022/03/28 11:29:40;;;;;;;;;;;;;;;17.30;32.39;100751.00;5053645;28;858;-56
2022/03/28 11:32:08;;;;;;;;;;;;;;;16.94;32.58;100737.63;5053648;28;826;-56
2022/03/28 11:34:34;;;;;;;;;;;;;;;17.04;33.13;100742.25;5053417;28;930;-56
2022/03/28 11:37:01;;;;;;;;;;;;;;;17.44;34.22;100738.81;5053442;28;830;-56
2022/03/28 11:39:29;;;;;;;;;;;;;;;17.65;32.80;100737.63;5053377;28;942;-56
2022/03/28 11:41:55;;;;;;;;;;;;;;;17.68;32.14;100731.16;5053345;28;1914;-56
2022/03/28 11:44:22;;;;;;;;;;;;;;;18.04;33.92;100719.28;5053275;28;878;-56
2022/03/28 11:46:57;;;;;;;;;;;;;;;18.06;33.01;100716.84;5053281;28;885;-56
2022/03/28 11:49:24;;;;;;;;;;;;;;;17.94;33.43;100715.47;5053228;28;878;-56
2022/03/28 11:51:51;;;;;;;;;;;;;;;18.16;33.16;100708.22;5053308;28;850;-56
2022/03/28 11:54:19;;;;;;;;;;;;;;;18.53;33.43;100700.59;5052950;28;850;-56
2022/03/28 11:59:37;;;;;;;;;;;;;;;18.79;33.70;100689.59;5052741;28;704;-56
2022/03/28 12:02:08;;;;;;;;;;;;;;;19.02;32.43;100683.03;5052996;28;1940;-56
2022/03/28 12:04:44;;;;;;;;;;;;;;;19.07;32.68;100670.50;5053056;28;830;-56
2022/03/28 12:07:11;;;;;;;;;;;;;;;19.12;32.80;100672.78;5052860;28;909;-56
2022/03/28 12:09:43;;;;;;;;;;;;;;;19.22;32.96;100668.88;5052839;28;839;-56
2022/03/28 12:12:10;;;;;;;;;;;;;;;19.15;32.74;100657.88;5052870;28;1004;-56
2022/03/28 12:14:38;;;;;;;;;;;;;;;18.66;32.34;100655.88;5052753;28;913;-56
2022/03/28 12:17:06;;;;;;;;;;;;;;;18.19;33.53;100639.41;5052640;28;908;-56
2022/03/28 12:19:32;;;;;;;;;;;;;;;18.54;34.48;100642.56;5052647;28;910;-56
2022/03/28 12:22:12;;;;;;;;;;;;;;;18.93;32.95;100640.84;5052426;28;1885;-56
2022/03/28 12:24:48;;;;;;;;;;;;;;;19.26;32.63;100632.38;5052440;28;1240;-56
2022/03/28 12:27:18;;;;;;;;;;;;;;;19.47;32.76;100628.97;5051446;28;802;-56
2022/03/28 12:29:45;;;;;;;;;;;;;;;19.50;33.50;100621.69;5052787;28;830;-56
2022/03/28 12:32:16;;;;;;;;;;;;;;;19.55;33.00;100626.75;5052560;28;833;-56
2022/03/28 12:34:43;;;;;;;;;;;;;;;19.81;32.73;100613.59;5052370;28;878;-56
2022/03/28 12:37:18;;;;;;;;;;;;;;;19.90;32.13;100608.09;5052297;28;883;-56
2022/03/28 12:39:46;;;;;;;;;;;;;;;19.97;32.02;100612.69;5052316;28;878;-56
2022/03/28 12:42:26;;;;;;;;;;;;;;;20.12;31.94;100602.63;5052143;28;1910;-56
2022/03/28 12:44:54;;;;;;;;;;;;;;;20.20;32.33;100603.16;5052170;28;922;-57
2022/03/28 12:47:25;;;;;;;;;;;;;;;20.22;31.98;100599.91;5052204;28;912;-56
2022/03/28 12:49:53;;;;;;;;;;;;;;;20.17;31.85;100593.63;5052158;28;826;-57
2022/03/28 12:52:24;;;;;;;;;;;;;;;20.71;31.30;100599.53;5052004;28;818;-56
2022/03/28 12:54:57;;;;;;;;;;;;;;;20.68;31.62;100592.03;5052242;28;940;-56
2022/03/28 12:57:26;;;;;;;;;;;;;;;20.60;31.52;100589.44;5052238;28;815;-57
2022/03/28 12:59:54;;;;;;;;;;;;;;;20.74;32.06;100582.56;5051878;28;926;-56
2022/03/28 13:02:21;;;;;;;;;;;;;;;20.42;31.96;100585.63;5051867;28;1935;-56
2022/03/28 13:04:49;;;;;;;;;;;;;;;20.34;32.41;100573.88;5051766;28;961;-56
2022/03/28 13:07:19;;;;;;;;;;;;;;;20.26;31.98;100573.28;5051709;28;862;-56
2022/03/28 13:09:55;;;;;;;;;;;;;;;20.31;31.57;100571.94;5051825;28;857;-56
2022/03/28 13:12:42;;;;;;;;;;;;;;;20.27;32.33;100562.84;5051798;28;806;-56
2022/03/28 13:15:19;;;;;;;;;;;;;;;20.06;32.35;100562.31;5033764;28;1683;-56
2022/03/28 13:17:48;;;;;;;;;;;;;;;19.90;32.69;100559.63;5051639;28;842;-56
2022/03/28 13:20:19;;;;;;;;;;;;;;;19.48;33.28;100554.84;5051617;28;929;-56
2022/03/28 13:22:50;;;;;;;;;;;;;;;18.90;34.21;100555.66;5051543;28;1889;-56
2022/03/28 13:25:19;;;;;;;;;;;;;;;18.38;34.85;100551.03;5051421;28;1365;-56
2022/03/28 13:28:02;;;;;;;;;;;;;;;18.05;35.34;100547.41;5043385;28;918;-57
2022/03/28 13:30:36;;;;;;;;;;;;;;;17.41;36.64;100544.03;5051437;28;918;-56
2022/03/28 13:33:04;;;;;;;;;;;;;;;17.11;37.21;100549.44;5051584;28;992;-56
2022/03/28 13:35:31;;;;;;;;;;;;;;;17.20;37.80;100545.25;5051620;28;881;-56
2022/03/28 13:38:02;;;;;;;;;;;;;;;17.15;37.73;100549.34;5051918;28;803;-57